createdAt,value
2022-08-26T00:01:36.383Z,91.33
2022-08-26T00:04:26.552Z,91.42
2022-08-26T00:07:14.855Z,89.37
2022-08-26T00:10:02.958Z,88.59
2022-08-26T00:12:51.299Z,88.23
2022-08-26T00:15:40.210Z,90.05
2022-08-26T00:18:28.329Z,89.92
2022-08-26T00:21:20.889Z,88.90
2022-08-26T00:24:09.732Z,89.38
2022-08-26T00:26:58.063Z,88.07
2022-08-26T00:29:46.494Z,88.21
2022-08-26T00:32:34.634Z,90.02
2022-08-26T00:35:23.464Z,90.00
2022-08-26T00:38:13.152Z,90.38
2022-08-26T00:41:01.230Z,90.78
2022-08-26T00:43:49.221Z,90.92
2022-08-26T00:46:46.625Z,91.73
2022-08-26T00:49:39.608Z,92.03
2022-08-26T00:52:28.125Z,93.00
2022-08-26T00:55:20.836Z,96.97
2022-08-26T00:58:10.349Z,98.02
2022-08-26T01:00:58.402Z,98.39
2022-08-26T01:03:47.538Z,99.09
2022-08-26T01:06:35.952Z,100.00
2022-08-26T01:09:25.126Z,100.00
2022-08-26T01:12:15.142Z,100.00
2022-08-26T01:15:11.892Z,100.00
2022-08-26T01:18:00.600Z,100.00
2022-08-26T01:20:59.602Z,100.00
2022-08-26T01:23:51.777Z,100.00
2022-08-26T01:26:46.160Z,100.00
2022-08-26T01:29:36.051Z,100.00
2022-08-26T01:32:25.742Z,100.00
2022-08-26T01:35:13.872Z,100.00
2022-08-26T01:38:02.302Z,100.00
2022-08-26T01:40:51.753Z,100.00
2022-08-26T01:43:45.902Z,100.00
2022-08-26T01:46:35.155Z,100.00
2022-08-26T01:49:25.995Z,100.00
2022-08-26T01:52:19.504Z,100.00
2022-08-26T01:55:11.133Z,100.00
2022-08-26T01:58:01.866Z,100.00
2022-08-26T02:00:50.476Z,100.00
2022-08-26T02:03:47.550Z,100.00
2022-08-26T02:06:37.674Z,100.00
2022-08-26T02:09:26.751Z,100.00
2022-08-26T02:12:17.687Z,100.00
2022-08-26T02:15:11.272Z,100.00
2022-08-26T02:17:59.294Z,100.00
2022-08-26T02:20:47.424Z,100.00
2022-08-26T02:23:40.663Z,100.00
2022-08-26T02:26:28.619Z,100.00
2022-08-26T02:29:23.479Z,100.00
2022-08-26T02:32:13.104Z,100.00
2022-08-26T02:35:07.342Z,100.00
2022-08-26T02:37:55.345Z,100.00
2022-08-26T02:40:43.997Z,100.00
2022-08-26T02:43:32.947Z,100.00
2022-08-26T02:46:27.965Z,100.00
2022-08-26T02:49:19.901Z,100.00
2022-08-26T02:52:08.585Z,100.00
2022-08-26T02:54:56.830Z,100.00
2022-08-26T02:57:44.952Z,100.00
2022-08-26T03:00:33.222Z,100.00
2022-08-26T03:03:22.489Z,100.00
2022-08-26T03:06:12.975Z,100.00
2022-08-26T03:09:01.119Z,100.00
2022-08-26T03:11:49.137Z,100.00
2022-08-26T03:14:37.319Z,100.00
2022-08-26T03:17:25.294Z,100.00
2022-08-26T03:20:17.477Z,100.00
2022-08-26T03:23:07.736Z,100.00
2022-08-26T03:25:57.244Z,100.00
2022-08-26T03:28:59.158Z,100.00
2022-08-26T03:31:47.349Z,100.00
2022-08-26T03:34:35.503Z,100.00
2022-08-26T03:37:23.577Z,100.00
2022-08-26T03:40:13.627Z,100.00
2022-08-26T03:43:02.137Z,100.00
2022-08-26T03:45:50.198Z,100.00
2022-08-26T03:48:39.929Z,100.00
2022-08-26T03:51:28.248Z,100.00
2022-08-26T03:54:16.783Z,100.00
2022-08-26T03:57:06.285Z,100.00
2022-08-26T03:59:54.303Z,100.00
2022-08-26T04:02:43.899Z,100.00
2022-08-26T04:05:32.707Z,100.00
2022-08-26T04:08:20.735Z,100.00
2022-08-26T04:11:10.093Z,100.00
2022-08-26T04:14:01.024Z,100.00
2022-08-26T04:16:50.495Z,100.00
2022-08-26T04:19:38.966Z,100.00
2022-08-26T04:22:27.264Z,100.00
2022-08-26T04:25:18.544Z,100.00
2022-08-26T04:28:08.601Z,100.00
2022-08-26T04:30:57.950Z,100.00
2022-08-26T04:33:49.692Z,100.00
2022-08-26T04:36:37.944Z,100.00
2022-08-26T04:39:27.640Z,100.00
2022-08-26T04:42:17.952Z,100.00
2022-08-26T04:45:12.271Z,100.00
2022-08-26T04:48:01.561Z,100.00
2022-08-26T04:50:52.347Z,100.00
2022-08-26T04:53:40.377Z,100.00
2022-08-26T04:56:32.546Z,100.00
2022-08-26T04:59:21.581Z,100.00
2022-08-26T05:02:09.767Z,100.00
2022-08-26T05:04:59.139Z,100.00
2022-08-26T05:07:47.335Z,100.00
2022-08-26T05:10:41.049Z,100.00
2022-08-26T05:13:29.062Z,100.00
2022-08-26T05:16:17.795Z,100.00
2022-08-26T05:19:08.533Z,100.00
2022-08-26T05:21:58.039Z,100.00
2022-08-26T05:24:46.457Z,100.00
2022-08-26T05:27:34.398Z,100.00
2022-08-26T05:30:22.528Z,100.00
2022-08-26T05:33:10.898Z,100.00
2022-08-26T05:35:59.072Z,100.00
2022-08-26T05:38:48.805Z,100.00
2022-08-26T05:41:39.463Z,100.00
2022-08-26T05:44:27.573Z,100.00
2022-08-26T05:47:15.582Z,100.00
2022-08-26T05:50:05.561Z,100.00
2022-08-26T05:52:53.591Z,100.00
2022-08-26T05:55:45.242Z,100.00
2022-08-26T05:58:34.997Z,100.00
2022-08-26T06:01:26.495Z,100.00
2022-08-26T06:04:14.505Z,100.00
2022-08-26T06:07:02.501Z,100.00
2022-08-26T06:10:01.643Z,100.00
2022-08-26T06:13:11.518Z,100.00
2022-08-26T06:16:03.502Z,100.00
2022-08-26T06:18:54.223Z,100.00
2022-08-26T06:21:45.973Z,100.00
2022-08-26T06:24:51.808Z,100.00
2022-08-26T06:27:39.899Z,100.00
2022-08-26T06:30:29.400Z,100.00
2022-08-26T06:33:17.389Z,100.00
2022-08-26T06:36:05.755Z,100.00
2022-08-26T06:38:56.074Z,100.00
2022-08-26T06:41:46.264Z,100.00
2022-08-26T06:44:38.390Z,100.00
2022-08-26T06:47:30.492Z,100.00
2022-08-26T06:50:18.702Z,100.00
2022-08-26T06:53:07.733Z,100.00
2022-08-26T06:55:55.961Z,100.00
2022-08-26T06:58:44.994Z,100.00
2022-08-26T07:01:36.665Z,100.00
2022-08-26T07:04:28.133Z,100.00
2022-08-26T07:07:16.700Z,98.66
2022-08-26T07:10:06.060Z,95.85
2022-08-26T07:12:54.285Z,89.96
2022-08-26T07:15:43.118Z,84.86
2022-08-26T07:18:31.221Z,81.05
2022-08-26T07:21:22.234Z,78.85
2022-08-26T07:24:12.214Z,75.09
2022-08-26T07:27:02.829Z,73.30
2022-08-26T07:29:51.161Z,72.74
2022-08-26T07:32:39.173Z,70.71
2022-08-26T07:35:27.711Z,70.73
2022-08-26T07:38:17.089Z,70.04
2022-08-26T07:41:05.839Z,67.54
2022-08-26T07:43:54.653Z,67.17
2022-08-26T07:46:44.159Z,66.53
2022-08-26T07:49:32.317Z,67.17
2022-08-26T07:52:24.027Z,67.68
2022-08-26T07:55:16.593Z,67.85
2022-08-26T07:58:05.489Z,69.03
2022-08-26T08:00:53.859Z,68.56
2022-08-26T08:03:41.858Z,66.45
2022-08-26T08:06:29.920Z,66.15
2022-08-26T08:09:20.082Z,65.44
2022-08-26T08:12:14.281Z,63.91
2022-08-26T08:15:02.425Z,61.26
2022-08-26T08:17:52.324Z,63.19
2022-08-26T08:20:42.314Z,62.51
2022-08-26T08:23:33.502Z,61.71
2022-08-26T08:26:21.951Z,62.70
2022-08-26T08:29:13.117Z,61.97
2022-08-26T08:32:01.159Z,61.44
2022-08-26T08:34:50.068Z,61.84
2022-08-26T08:37:38.177Z,61.82
2022-08-26T08:40:27.751Z,61.96
2022-08-26T08:43:28.723Z,63.74
2022-08-26T08:46:19.422Z,62.46
2022-08-26T08:49:07.532Z,62.79
2022-08-26T08:52:01.977Z,62.32
2022-08-26T08:54:52.187Z,60.52
2022-08-26T08:57:53.957Z,59.43
2022-08-26T09:00:51.441Z,56.58
2022-08-26T09:03:52.485Z,54.77
2022-08-26T09:06:41.193Z,53.96
2022-08-26T09:09:35.617Z,52.94
2022-08-26T09:12:29.747Z,50.95
2022-08-26T09:15:23.943Z,50.62
2022-08-26T09:18:29.474Z,49.49
2022-08-26T09:21:20.626Z,48.44
2022-08-26T09:24:13.905Z,48.05
2022-08-26T09:27:02.260Z,48.67
2022-08-26T09:29:50.549Z,48.26
2022-08-26T09:32:40.833Z,47.64
2022-08-26T09:35:31.568Z,47.38
2022-08-26T09:38:28.016Z,46.45
2022-08-26T09:41:25.909Z,46.08
2022-08-26T09:44:17.412Z,46.13
2022-08-26T09:47:08.753Z,45.30
2022-08-26T09:50:04.123Z,44.95
2022-08-26T09:53:09.901Z,44.80
2022-08-26T09:56:19.169Z,46.70
2022-08-26T09:59:11.415Z,46.28
2022-08-26T10:02:21.183Z,46.42
2022-08-26T10:05:16.541Z,46.81
2022-08-26T10:08:20.856Z,46.83
2022-08-26T10:11:20.192Z,47.42
2022-08-26T10:14:15.052Z,47.07
2022-08-26T10:17:06.978Z,46.28
2022-08-26T10:20:00.303Z,45.74
2022-08-26T10:22:54.053Z,44.88
2022-08-26T10:25:47.599Z,44.82
2022-08-26T10:28:42.000Z,45.11
2022-08-26T10:31:40.598Z,45.21
2022-08-26T10:34:28.986Z,44.77
2022-08-26T10:37:20.380Z,44.42
2022-08-26T10:40:14.413Z,43.38
2022-08-26T10:43:10.979Z,42.59
2022-08-26T10:46:06.876Z,41.72
2022-08-26T10:48:59.951Z,40.87
2022-08-26T10:51:57.447Z,41.09
2022-08-26T10:54:51.868Z,40.62
2022-08-26T10:57:47.849Z,42.00
2022-08-26T11:01:00.628Z,43.14
2022-08-26T11:04:00.270Z,43.35
2022-08-26T11:06:48.422Z,42.44
2022-08-26T11:09:45.712Z,42.12
2022-08-26T11:13:04.555Z,41.66
2022-08-26T11:16:02.346Z,41.55
2022-08-26T11:18:55.781Z,42.45
2022-08-26T11:22:05.835Z,42.43
2022-08-26T11:25:12.651Z,41.79
2022-08-26T11:28:01.373Z,41.42
2022-08-26T11:30:57.765Z,41.43
2022-08-26T11:33:49.601Z,40.74
2022-08-26T11:36:52.707Z,41.25
2022-08-26T11:39:53.985Z,41.17
2022-08-26T11:42:46.304Z,42.20
2022-08-26T11:45:38.100Z,44.86
2022-08-26T11:48:33.180Z,44.22
2022-08-26T11:51:24.112Z,44.40
2022-08-26T11:54:16.394Z,43.40
2022-08-26T11:57:09.387Z,42.79
2022-08-26T12:00:01.256Z,42.04
2022-08-26T12:02:50.069Z,43.24
2022-08-26T12:05:45.525Z,42.27
2022-08-26T12:08:35.162Z,42.34
2022-08-26T12:11:27.689Z,42.08
2022-08-26T12:14:20.631Z,42.48
2022-08-26T12:17:13.922Z,42.35
2022-08-26T12:20:01.967Z,43.18
2022-08-26T12:22:51.048Z,43.88
2022-08-26T12:25:40.259Z,43.81
2022-08-26T12:28:30.242Z,44.68
2022-08-26T12:31:24.487Z,45.18
2022-08-26T12:34:17.608Z,45.73
2022-08-26T12:37:07.601Z,47.16
2022-08-26T12:39:55.744Z,45.34
2022-08-26T12:42:43.758Z,44.21
2022-08-26T12:45:35.000Z,43.34
2022-08-26T12:48:27.897Z,42.44
2022-08-26T12:51:23.941Z,40.71
2022-08-26T12:54:15.924Z,39.22
2022-08-26T12:57:11.177Z,39.46
2022-08-26T13:00:28.385Z,40.04
2022-08-26T13:03:37.607Z,37.15
2022-08-26T13:06:29.703Z,37.31
2022-08-26T13:09:31.309Z,36.30
2022-08-26T13:12:30.514Z,35.92
2022-08-26T13:15:18.652Z,35.84
2022-08-26T13:18:07.625Z,35.23
2022-08-26T13:20:57.655Z,35.16
2022-08-26T13:23:46.044Z,35.62
2022-08-26T13:26:35.070Z,37.14
2022-08-26T13:29:23.598Z,37.54
2022-08-26T13:32:11.871Z,38.84
2022-08-26T13:35:05.898Z,38.61
2022-08-26T13:37:55.488Z,38.10
2022-08-26T13:40:44.342Z,37.06
2022-08-26T13:43:33.536Z,36.01
2022-08-26T13:46:21.698Z,35.46
2022-08-26T13:49:10.009Z,35.64
2022-08-26T13:51:57.984Z,36.60
2022-08-26T13:54:47.425Z,36.74
2022-08-26T13:57:35.434Z,37.13
2022-08-26T14:00:23.676Z,37.42
2022-08-26T14:03:13.494Z,37.20
2022-08-26T14:06:01.762Z,36.99
2022-08-26T14:08:49.779Z,37.31
2022-08-26T14:11:50.530Z,37.25
2022-08-26T14:14:42.244Z,37.35
2022-08-26T14:17:32.327Z,36.94
2022-08-26T14:20:25.096Z,36.74
2022-08-26T14:23:14.375Z,36.26
2022-08-26T14:26:07.945Z,36.24
2022-08-26T14:28:57.515Z,36.00
2022-08-26T14:31:45.639Z,35.46
2022-08-26T14:34:33.982Z,34.54
2022-08-26T14:37:22.628Z,34.14
2022-08-26T14:40:14.681Z,33.64
2022-08-26T14:43:02.969Z,33.15
2022-08-26T14:45:52.560Z,33.17
2022-08-26T14:48:41.898Z,34.53
2022-08-26T14:51:29.998Z,33.92
2022-08-26T14:54:19.312Z,34.12
2022-08-26T14:57:10.240Z,34.08
2022-08-26T14:59:58.833Z,34.32
2022-08-26T15:02:47.029Z,35.51
2022-08-26T15:05:36.555Z,37.21
2022-08-26T15:08:25.341Z,38.98
2022-08-26T15:11:13.319Z,41.51
2022-08-26T15:14:01.327Z,41.80
2022-08-26T15:16:50.686Z,41.27
2022-08-26T15:19:39.022Z,41.88
2022-08-26T15:22:29.783Z,42.81
2022-08-26T15:25:17.931Z,42.58
2022-08-26T15:28:06.200Z,42.04
2022-08-26T15:30:54.257Z,42.32
2022-08-26T15:33:42.621Z,42.24
2022-08-26T15:36:32.460Z,42.63
2022-08-26T15:39:22.259Z,42.77
2022-08-26T15:42:11.045Z,42.80
2022-08-26T15:44:59.014Z,41.60
2022-08-26T15:48:01.049Z,41.19
2022-08-26T15:50:52.312Z,41.53
2022-08-26T15:53:40.300Z,41.68
2022-08-26T15:56:32.695Z,42.68
2022-08-26T15:59:23.260Z,42.60
2022-08-26T16:02:11.752Z,42.32
2022-08-26T16:05:00.036Z,41.99
2022-08-26T16:07:48.504Z,41.62
2022-08-26T16:10:38.372Z,41.09
2022-08-26T16:13:28.862Z,40.52
2022-08-26T16:16:28.012Z,40.97
2022-08-26T16:19:16.328Z,40.77
2022-08-26T16:22:07.603Z,41.53
2022-08-26T16:24:57.983Z,42.07
2022-08-26T16:27:45.960Z,42.67
2022-08-26T16:30:36.628Z,42.77
2022-08-26T16:33:29.136Z,44.16
2022-08-26T16:36:17.950Z,44.85
2022-08-26T16:39:08.159Z,45.68
2022-08-26T16:41:56.281Z,46.21
2022-08-26T16:44:46.963Z,47.06
2022-08-26T16:47:36.260Z,47.68
2022-08-26T16:50:24.639Z,48.17
2022-08-26T16:56:05.870Z,49.82
2022-08-26T16:58:55.002Z,50.42
2022-08-26T17:01:42.978Z,50.65
2022-08-26T17:04:32.563Z,51.49
2022-08-26T17:07:20.661Z,52.15
2022-08-26T17:10:09.430Z,52.39
2022-08-26T17:12:57.741Z,52.68
2022-08-26T17:15:53.688Z,53.25
2022-08-26T17:18:44.552Z,53.57
2022-08-26T17:21:36.399Z,54.04
2022-08-26T17:24:24.385Z,53.79
2022-08-26T17:27:12.853Z,54.76
2022-08-26T17:30:00.861Z,55.51
2022-08-26T17:32:49.531Z,54.80
2022-08-26T17:35:37.515Z,55.36
2022-08-26T17:38:29.019Z,56.62
2022-08-26T17:41:17.015Z,57.21
2022-08-26T17:44:05.550Z,59.27
2022-08-26T17:46:53.702Z,60.79
2022-08-26T17:49:42.173Z,61.82
2022-08-26T17:52:31.109Z,62.41
2022-08-26T17:55:20.623Z,63.30
2022-08-26T17:58:09.798Z,64.32
2022-08-26T18:00:58.131Z,65.07
2022-08-26T18:03:46.238Z,67.45
2022-08-26T18:06:34.695Z,66.71
2022-08-26T18:09:22.684Z,68.77
2022-08-26T18:12:13.155Z,68.49
2022-08-26T18:15:01.643Z,67.97
2022-08-26T18:17:49.671Z,69.14
2022-08-26T18:20:39.815Z,69.18
2022-08-26T18:23:27.996Z,69.94
2022-08-26T18:26:21.628Z,73.25
2022-08-26T18:29:11.176Z,80.41
2022-08-26T18:31:59.209Z,83.38
2022-08-26T18:34:47.283Z,91.73
2022-08-26T18:37:35.324Z,100.00
2022-08-26T18:40:24.113Z,100.00
2022-08-26T18:43:12.891Z,96.16
2022-08-26T18:46:07.545Z,96.29
2022-08-26T18:48:56.745Z,93.41
2022-08-26T18:51:45.604Z,94.24
2022-08-26T18:54:33.608Z,94.55
2022-08-26T18:57:21.589Z,93.97
2022-08-26T19:00:10.958Z,94.34
2022-08-26T19:03:00.430Z,93.91
2022-08-26T19:05:48.993Z,95.92
2022-08-26T19:08:36.996Z,93.94
2022-08-26T19:11:37.571Z,94.67
2022-08-26T19:14:31.115Z,93.75
2022-08-26T19:17:19.100Z,94.03
2022-08-26T19:20:12.646Z,95.23
2022-08-26T19:23:10.413Z,94.88
2022-08-26T19:26:05.758Z,94.27
2022-08-26T19:28:54.324Z,95.30
2022-08-26T19:31:44.080Z,94.38
2022-08-26T19:34:34.405Z,95.36
2022-08-26T19:37:24.088Z,95.36
2022-08-26T19:40:12.519Z,96.19
2022-08-26T19:43:00.590Z,100.00
2022-08-26T19:45:48.836Z,100.00
2022-08-26T19:48:36.921Z,100.00
2022-08-26T19:51:27.534Z,100.00
2022-08-26T19:54:17.393Z,100.00
2022-08-26T19:57:06.075Z,100.00
2022-08-26T19:59:54.060Z,100.00
2022-08-26T20:02:44.031Z,100.00
2022-08-26T20:05:32.207Z,100.00
2022-08-26T20:08:22.191Z,100.00
2022-08-26T20:11:16.062Z,100.00
2022-08-26T20:14:04.282Z,100.00
2022-08-26T20:16:52.478Z,100.00
2022-08-26T20:19:58.451Z,100.00
2022-08-26T20:22:46.807Z,100.00
2022-08-26T20:25:36.552Z,100.00
2022-08-26T20:28:25.928Z,100.00
2022-08-26T20:31:13.949Z,100.00
2022-08-26T20:34:03.137Z,100.00
2022-08-26T20:36:51.885Z,100.00
2022-08-26T20:39:39.901Z,100.00
2022-08-26T20:42:30.014Z,100.00
2022-08-26T20:45:19.324Z,100.00
2022-08-26T20:48:07.565Z,100.00
2022-08-26T20:50:59.099Z,100.00
2022-08-26T20:53:47.528Z,100.00
2022-08-26T20:56:36.011Z,100.00
2022-08-26T20:59:24.324Z,100.00
2022-08-26T21:02:13.707Z,100.00
2022-08-26T21:05:01.844Z,100.00
2022-08-26T21:07:50.391Z,100.00
2022-08-26T21:10:38.426Z,100.00
2022-08-26T21:13:26.594Z,100.00
2022-08-26T21:16:14.609Z,100.00
2022-08-26T21:19:04.472Z,100.00
2022-08-26T21:21:52.521Z,100.00
2022-08-26T21:24:40.622Z,100.00
2022-08-26T21:27:43.063Z,100.00
2022-08-26T21:30:31.186Z,100.00
2022-08-26T21:33:19.191Z,100.00
2022-08-26T21:36:10.312Z,100.00
2022-08-26T21:38:58.805Z,100.00
2022-08-26T21:41:47.152Z,100.00
2022-08-26T21:44:35.168Z,100.00
2022-08-26T21:47:24.353Z,100.00
2022-08-26T21:50:13.442Z,100.00
2022-08-26T21:53:02.805Z,100.00
2022-08-26T21:55:50.943Z,100.00
2022-08-26T21:58:39.645Z,100.00
2022-08-26T22:01:31.738Z,100.00
2022-08-26T22:04:19.917Z,100.00
2022-08-26T22:07:08.295Z,100.00
2022-08-26T22:09:57.853Z,100.00
2022-08-26T22:12:45.860Z,100.00
2022-08-26T22:15:35.360Z,100.00
2022-08-26T22:18:23.396Z,100.00
2022-08-26T22:21:15.753Z,100.00
2022-08-26T22:24:06.036Z,100.00
2022-08-26T22:26:56.433Z,100.00
2022-08-26T22:29:46.427Z,100.00
2022-08-26T22:32:34.881Z,100.00
2022-08-26T22:35:29.124Z,100.00
2022-08-26T22:38:18.317Z,100.00
2022-08-26T22:41:09.678Z,100.00
2022-08-26T22:43:59.006Z,100.00
2022-08-26T22:46:48.258Z,100.00
2022-08-26T22:49:36.230Z,100.00
2022-08-26T22:52:24.257Z,100.00
2022-08-26T22:55:12.272Z,100.00
2022-08-26T22:58:01.146Z,100.00
2022-08-26T23:00:50.653Z,100.00
2022-08-26T23:03:39.433Z,100.00
2022-08-26T23:06:27.579Z,100.00
2022-08-26T23:09:17.790Z,100.00
2022-08-26T23:12:06.236Z,100.00
2022-08-26T23:14:54.363Z,100.00
2022-08-26T23:17:43.718Z,100.00
2022-08-26T23:20:32.654Z,100.00
2022-08-26T23:23:20.701Z,100.00
2022-08-26T23:26:09.708Z,100.00
2022-08-26T23:28:57.678Z,100.00
2022-08-26T23:31:45.871Z,100.00
2022-08-26T23:34:53.036Z,100.00
2022-08-26T23:37:43.621Z,100.00
2022-08-26T23:40:34.292Z,100.00
2022-08-26T23:43:22.938Z,100.00
2022-08-26T23:46:11.029Z,100.00
2022-08-26T23:48:59.223Z,100.00
2022-08-26T23:52:06.178Z,100.00
2022-08-26T23:54:54.146Z,100.00
2022-08-26T23:57:42.529Z,100.00
